sensor_id;sensor_type;location;lat;lon;timestamp;pressure;altitude;pressure_sealevel;temperature;humidity
62103;BME280;48077;48.104;11.702;2023-02-22T00:02:04;95436.22;;;1.26;93.25
62103;BME280;48077;48.104;11.702;2023-02-22T00:04:36;95405.84;;;1.09;92.97
62103;BME280;48077;48.104;11.702;2023-02-22T00:07:01;95421.88;;;1.14;93.62
62103;BME280;48077;48.104;11.702;2023-02-22T00:09:25;95382.00;;;0.87;93.26
62103;BME280;48077;48.104;11.702;2023-02-22T00:11:48;95385.97;;;0.83;93.42
62103;BME280;48077;48.104;11.702;2023-02-22T00:14:12;95423.91;;;1.04;93.72
62103;BME280;48077;48.104;11.702;2023-02-22T00:16:35;95368.53;;;0.67;93.61
62103;BME280;48077;48.104;11.702;2023-02-22T00:18:58;95376.41;;;0.67;93.51
62103;BME280;48077;48.104;11.702;2023-02-22T00:21:22;95419.59;;;0.88;93.76
62103;BME280;48077;48.104;11.702;2023-02-22T00:23:46;95395.75;;;0.66;94.28
62103;BME280;48077;48.104;11.702;2023-02-22T00:26:12;95406.38;;;0.73;94.80
62103;BME280;48077;48.104;11.702;2023-02-22T00:28:36;95359.47;;;0.47;94.84
62103;BME280;48077;48.104;11.702;2023-02-22T00:31:02;95415.50;;;0.85;94.48
62103;BME280;48077;48.104;11.702;2023-02-22T00:33:27;95375.66;;;0.58;94.03
62103;BME280;48077;48.104;11.702;2023-02-22T00:35:50;95352.78;;;0.44;93.86
62103;BME280;48077;48.104;11.702;2023-02-22T00:38:16;95417.31;;;0.85;94.05
62103;BME280;48077;48.104;11.702;2023-02-22T00:40:40;95392.63;;;0.71;94.00
62103;BME280;48077;48.104;11.702;2023-02-22T00:43:04;95334.66;;;0.26;93.92
62103;BME280;48077;48.104;11.702;2023-02-22T00:45:29;95393.88;;;0.52;93.61
62103;BME280;48077;48.104;11.702;2023-02-22T00:47:54;95413.03;;;0.60;94.58
62103;BME280;48077;48.104;11.702;2023-02-22T00:50:18;95419.78;;;0.55;94.73
62103;BME280;48077;48.104;11.702;2023-02-22T00:52:41;95418.50;;;0.51;94.63
62103;BME280;48077;48.104;11.702;2023-02-22T00:55:07;95398.41;;;0.35;94.64
62103;BME280;48077;48.104;11.702;2023-02-22T00:57:30;95409.66;;;0.44;94.93
62103;BME280;48077;48.104;11.702;2023-02-22T00:59:56;95381.91;;;0.18;94.74
62103;BME280;48077;48.104;11.702;2023-02-22T01:02:20;95352.47;;;-0.01;95.46
62103;BME280;48077;48.104;11.702;2023-02-22T01:04:43;95394.47;;;0.31;95.63
62103;BME280;48077;48.104;11.702;2023-02-22T01:07:07;95399.94;;;0.21;95.60
62103;BME280;48077;48.104;11.702;2023-02-22T01:09:30;95390.31;;;0.13;95.93
62103;BME280;48077;48.104;11.702;2023-02-22T01:11:55;95369.50;;;0.04;96.11
62103;BME280;48077;48.104;11.702;2023-02-22T01:14:19;95399.91;;;0.29;96.61
62103;BME280;48077;48.104;11.702;2023-02-22T01:16:43;95395.47;;;0.30;96.23
62103;BME280;48077;48.104;11.702;2023-02-22T01:19:06;95355.25;;;0.06;95.77
62103;BME280;48077;48.104;11.702;2023-02-22T01:21:29;95363.91;;;0.15;95.82
62103;BME280;48077;48.104;11.702;2023-02-22T01:23:53;95340.22;;;0.00;95.29
62103;BME280;48077;48.104;11.702;2023-02-22T01:26:17;95372.59;;;0.15;95.36
62103;BME280;48077;48.104;11.702;2023-02-22T01:28:40;95393.16;;;0.35;95.29
62103;BME280;48077;48.104;11.702;2023-02-22T01:31:04;95367.03;;;0.10;95.34
62103;BME280;48077;48.104;11.702;2023-02-22T01:33:28;95376.50;;;0.19;96.19
62103;BME280;48077;48.104;11.702;2023-02-22T01:35:52;95340.38;;;-0.02;95.88
62103;BME280;48077;48.104;11.702;2023-02-22T01:38:15;95350.50;;;0.02;95.46
62103;BME280;48077;48.104;11.702;2023-02-22T01:40:45;95390.41;;;0.28;95.53
62103;BME280;48077;48.104;11.702;2023-02-22T01:43:24;95389.22;;;0.31;95.48
62103;BME280;48077;48.104;11.702;2023-02-22T01:48:44;95393.53;;;0.24;94.88
62103;BME280;48077;48.104;11.702;2023-02-22T01:51:15;95360.03;;;0.03;95.26
62103;BME280;48077;48.104;11.702;2023-02-22T01:53:53;95336.13;;;-0.11;95.22
62103;BME280;48077;48.104;11.702;2023-02-22T01:56:21;95370.00;;;0.07;95.20
62103;BME280;48077;48.104;11.702;2023-02-22T01:58:49;95348.44;;;-0.11;95.37
62103;BME280;48077;48.104;11.702;2023-02-22T02:01:15;95334.22;;;-0.25;95.40
62103;BME280;48077;48.104;11.702;2023-02-22T02:03:40;95325.72;;;-0.27;95.57
62103;BME280;48077;48.104;11.702;2023-02-22T02:06:08;95319.81;;;-0.29;95.34
62103;BME280;48077;48.104;11.702;2023-02-22T02:08:54;95371.50;;;0.02;95.62
62103;BME280;48077;48.104;11.702;2023-02-22T02:11:23;95356.28;;;-0.03;95.24
62103;BME280;48077;48.104;11.702;2023-02-22T02:13:52;95338.97;;;-0.21;95.09
62103;BME280;48077;48.104;11.702;2023-02-22T02:16:23;95307.25;;;-0.42;95.13
62103;BME280;48077;48.104;11.702;2023-02-22T02:18:48;95298.78;;;-0.52;95.20
62103;BME280;48077;48.104;11.702;2023-02-22T02:35:37;95330.38;;;-0.46;96.54
62103;BME280;48077;48.104;11.702;2023-02-22T02:41:06;95328.19;;;-0.34;96.97
62103;BME280;48077;48.104;11.702;2023-02-22T02:43:51;95268.06;;;-0.67;96.97
62103;BME280;48077;48.104;11.702;2023-02-22T02:46:24;95336.53;;;-0.22;96.93
62103;BME280;48077;48.104;11.702;2023-02-22T02:48:57;95280.13;;;-0.49;96.78
62103;BME280;48077;48.104;11.702;2023-02-22T02:51:28;95321.72;;;-0.15;96.44
62103;BME280;48077;48.104;11.702;2023-02-22T02:53:56;95285.31;;;-0.41;96.28
62103;BME280;48077;48.104;11.702;2023-02-22T02:56:19;95263.41;;;-0.56;95.82
62103;BME280;48077;48.104;11.702;2023-02-22T02:58:52;95309.53;;;-0.31;95.99
62103;BME280;48077;48.104;11.702;2023-02-22T03:06:53;95312.81;;;-0.29;96.44
62103;BME280;48077;48.104;11.702;2023-02-22T03:09:45;95308.53;;;-0.30;96.16
62103;BME280;48077;48.104;11.702;2023-02-22T03:23:22;95291.84;;;-0.37;96.82
62103;BME280;48077;48.104;11.702;2023-02-22T03:25:51;95275.69;;;-0.57;96.73
62103;BME280;48077;48.104;11.702;2023-02-22T03:28:18;95293.19;;;-0.41;97.18
62103;BME280;48077;48.104;11.702;2023-02-22T03:30:50;95256.44;;;-0.64;96.79
62103;BME280;48077;48.104;11.702;2023-02-22T03:33:23;95293.06;;;-0.48;97.50
62103;BME280;48077;48.104;11.702;2023-02-22T03:35:55;95235.69;;;-0.82;97.75
62103;BME280;48077;48.104;11.702;2023-02-22T03:38:23;95252.34;;;-0.67;97.51
62103;BME280;48077;48.104;11.702;2023-02-22T03:40:50;95270.78;;;-0.52;97.06
62103;BME280;48077;48.104;11.702;2023-02-22T03:43:22;95279.59;;;-0.45;96.70
62103;BME280;48077;48.104;11.702;2023-02-22T03:45:48;95300.53;;;-0.36;96.70
62103;BME280;48077;48.104;11.702;2023-02-22T03:48:24;95280.78;;;-0.55;96.48
62103;BME280;48077;48.104;11.702;2023-02-22T03:50:51;95240.25;;;-0.84;96.32
62103;BME280;48077;48.104;11.702;2023-02-22T03:53:14;95278.03;;;-0.62;96.97
62103;BME280;48077;48.104;11.702;2023-02-22T03:55:40;95255.81;;;-0.83;96.64
62103;BME280;48077;48.104;11.702;2023-02-22T03:58:08;95282.47;;;-0.71;96.67
62103;BME280;48077;48.104;11.702;2023-02-22T04:00:33;95271.34;;;-0.73;96.93
62103;BME280;48077;48.104;11.702;2023-02-22T04:02:57;95306.66;;;-0.61;96.80
62103;BME280;48077;48.104;11.702;2023-02-22T04:05:20;95326.28;;;-0.48;97.20
62103;BME280;48077;48.104;11.702;2023-02-22T04:07:44;95277.72;;;-0.75;97.11
62103;BME280;48077;48.104;11.702;2023-02-22T04:10:09;95316.31;;;-0.53;97.17
62103;BME280;48077;48.104;11.702;2023-02-22T04:12:36;95277.72;;;-0.75;96.79
62103;BME280;48077;48.104;11.702;2023-02-22T04:14:59;95294.56;;;-0.62;96.88
62103;BME280;48077;48.104;11.702;2023-02-22T04:17:23;95265.16;;;-0.88;96.60
62103;BME280;48077;48.104;11.702;2023-02-22T04:19:46;95283.44;;;-0.72;96.36
62103;BME280;48077;48.104;11.702;2023-02-22T04:22:10;95301.75;;;-0.64;96.48
62103;BME280;48077;48.104;11.702;2023-02-22T04:24:33;95312.53;;;-0.58;96.83
62103;BME280;48077;48.104;11.702;2023-02-22T04:26:57;95305.03;;;-0.62;97.13
62103;BME280;48077;48.104;11.702;2023-02-22T04:29:20;95263.53;;;-0.89;97.54
62103;BME280;48077;48.104;11.702;2023-02-22T04:31:43;95303.72;;;-0.57;97.47
62103;BME280;48077;48.104;11.702;2023-02-22T04:34:14;95237.19;;;-0.96;96.94
62103;BME280;48077;48.104;11.702;2023-02-22T04:36:38;95236.38;;;-0.96;98.00
62103;BME280;48077;48.104;11.702;2023-02-22T04:39:04;95273.78;;;-0.71;97.93
62103;BME280;48077;48.104;11.702;2023-02-22T04:41:27;95249.28;;;-0.87;98.04
62103;BME280;48077;48.104;11.702;2023-02-22T04:43:51;95251.56;;;-0.84;97.66
62103;BME280;48077;48.104;11.702;2023-02-22T04:46:15;95236.06;;;-0.93;97.47
62103;BME280;48077;48.104;11.702;2023-02-22T04:48:38;95261.72;;;-0.80;97.22
62103;BME280;48077;48.104;11.702;2023-02-22T04:51:02;95215.94;;;-1.09;97.06
62103;BME280;48077;48.104;11.702;2023-02-22T04:53:25;95292.59;;;-0.59;97.67
62103;BME280;48077;48.104;11.702;2023-02-22T04:55:52;95286.03;;;-0.64;97.47
62103;BME280;48077;48.104;11.702;2023-02-22T04:58:15;95286.84;;;-0.63;97.52
62103;BME280;48077;48.104;11.702;2023-02-22T05:00:39;95242.09;;;-0.93;97.48
62103;BME280;48077;48.104;11.702;2023-02-22T05:03:02;95259.59;;;-0.85;97.10
62103;BME280;48077;48.104;11.702;2023-02-22T05:05:28;95294.41;;;-0.68;97.32
62103;BME280;48077;48.104;11.702;2023-02-22T05:07:52;95277.94;;;-0.85;97.43
62103;BME280;48077;48.104;11.702;2023-02-22T05:10:16;95222.69;;;-1.23;97.15
62103;BME280;48077;48.104;11.702;2023-02-22T05:12:39;95288.22;;;-0.84;97.45
62103;BME280;48077;48.104;11.702;2023-02-22T05:15:04;95260.59;;;-1.03;97.94
62103;BME280;48077;48.104;11.702;2023-02-22T05:17:28;95235.75;;;-1.23;98.46
62103;BME280;48077;48.104;11.702;2023-02-22T05:19:52;95163.56;;;-1.73;98.45
62103;BME280;48077;48.104;11.702;2023-02-22T05:22:15;95212.41;;;-1.41;98.07
62103;BME280;48077;48.104;11.702;2023-02-22T05:24:39;95245.91;;;-1.20;98.14
62103;BME280;48077;48.104;11.702;2023-02-22T05:27:03;95202.09;;;-1.43;98.35
62103;BME280;48077;48.104;11.702;2023-02-22T05:29:29;95238.88;;;-1.19;98.26
62103;BME280;48077;48.104;11.702;2023-02-22T05:31:52;95211.25;;;-1.38;98.18
62103;BME280;48077;48.104;11.702;2023-02-22T05:34:19;95218.75;;;-1.27;98.26
62103;BME280;48077;48.104;11.702;2023-02-22T05:36:46;95209.63;;;-1.31;98.02
62103;BME280;48077;48.104;11.702;2023-02-22T05:39:09;95210.09;;;-1.36;97.84
62103;BME280;48077;48.104;11.702;2023-02-22T05:41:33;95129.91;;;-1.85;97.38
62103;BME280;48077;48.104;11.702;2023-02-22T05:43:59;95162.59;;;-1.72;97.62
62103;BME280;48077;48.104;11.702;2023-02-22T05:46:25;95202.59;;;-1.47;97.43
62103;BME280;48077;48.104;11.702;2023-02-22T05:48:48;95179.56;;;-1.60;97.82
62103;BME280;48077;48.104;11.702;2023-02-22T05:51:12;95208.81;;;-1.48;98.15
62103;BME280;48077;48.104;11.702;2023-02-22T05:53:35;95188.72;;;-1.56;98.34
62103;BME280;48077;48.104;11.702;2023-02-22T05:56:02;95245.91;;;-1.12;98.31
62103;BME280;48077;48.104;11.702;2023-02-22T05:58:25;95141.31;;;-1.77;98.41
62103;BME280;48077;48.104;11.702;2023-02-22T06:00:51;95175.81;;;-1.57;97.86
62103;BME280;48077;48.104;11.702;2023-02-22T06:03:15;95135.63;;;-1.81;97.63
62103;BME280;48077;48.104;11.702;2023-02-22T06:05:39;95161.59;;;-1.63;97.22
62103;BME280;48077;48.104;11.702;2023-02-22T06:08:03;95161.44;;;-1.70;97.26
62103;BME280;48077;48.104;11.702;2023-02-22T06:10:30;95180.22;;;-1.66;97.55
62103;BME280;48077;48.104;11.702;2023-02-22T06:12:55;95139.72;;;-1.95;97.81
62103;BME280;48077;48.104;11.702;2023-02-22T06:15:20;95155.06;;;-1.84;97.37
62103;BME280;48077;48.104;11.702;2023-02-22T06:17:43;95219.91;;;-1.38;97.48
62103;BME280;48077;48.104;11.702;2023-02-22T06:20:12;95248.03;;;-1.24;97.40
62103;BME280;48077;48.104;11.702;2023-02-22T06:22:35;95254.56;;;-1.19;97.69
62103;BME280;48077;48.104;11.702;2023-02-22T06:24:58;95255.06;;;-1.16;98.28
62103;BME280;48077;48.104;11.702;2023-02-22T06:27:24;95277.78;;;-1.00;97.72
62103;BME280;48077;48.104;11.702;2023-02-22T06:29:47;95244.75;;;-1.17;98.27
62103;BME280;48077;48.104;11.702;2023-02-22T06:32:11;95266.34;;;-1.07;98.33
62103;BME280;48077;48.104;11.702;2023-02-22T06:34:35;95220.56;;;-1.28;98.24
62103;BME280;48077;48.104;11.702;2023-02-22T06:36:58;95237.25;;;-1.20;98.59
62103;BME280;48077;48.104;11.702;2023-02-22T06:39:22;95216.78;;;-1.25;98.99
62103;BME280;48077;48.104;11.702;2023-02-22T06:41:47;95204.72;;;-1.34;98.76
62103;BME280;48077;48.104;11.702;2023-02-22T06:44:14;95273.34;;;-0.91;98.29
62103;BME280;48077;48.104;11.702;2023-02-22T06:46:46;95240.66;;;-1.12;98.29
62103;BME280;48077;48.104;11.702;2023-02-22T06:49:12;95218.94;;;-1.20;98.11
62103;BME280;48077;48.104;11.702;2023-02-22T06:51:38;95267.94;;;-0.90;98.15
62103;BME280;48077;48.104;11.702;2023-02-22T06:54:03;95297.84;;;-0.68;98.67
62103;BME280;48077;48.104;11.702;2023-02-22T06:56:26;95292.91;;;-0.63;98.22
62103;BME280;48077;48.104;11.702;2023-02-22T06:58:50;95285.88;;;-0.62;97.93
62103;BME280;48077;48.104;11.702;2023-02-22T07:01:13;95284.72;;;-0.59;98.00
62103;BME280;48077;48.104;11.702;2023-02-22T07:03:37;95290.91;;;-0.52;98.01
62103;BME280;48077;48.104;11.702;2023-02-22T07:06:01;95289.78;;;-0.50;97.88
62103;BME280;48077;48.104;11.702;2023-02-22T07:08:24;95280.91;;;-0.49;97.61
62103;BME280;48077;48.104;11.702;2023-02-22T07:10:48;95296.59;;;-0.32;97.41
62103;BME280;48077;48.104;11.702;2023-02-22T07:13:12;95298.00;;;-0.22;97.84
62103;BME280;48077;48.104;11.702;2023-02-22T07:15:37;95282.97;;;-0.28;97.51
62103;BME280;48077;48.104;11.702;2023-02-22T07:18:01;95289.59;;;-0.09;97.54
62103;BME280;48077;48.104;11.702;2023-02-22T07:20:26;95287.13;;;-0.02;97.37
62103;BME280;48077;48.104;11.702;2023-02-22T07:22:50;95281.66;;;0.08;97.39
62103;BME280;48077;48.104;11.702;2023-02-22T07:25:14;95266.06;;;0.06;97.56
62103;BME280;48077;48.104;11.702;2023-02-22T07:27:38;95269.28;;;0.16;97.64
62103;BME280;48077;48.104;11.702;2023-02-22T07:30:05;95273.16;;;0.29;97.54
62103;BME280;48077;48.104;11.702;2023-02-22T07:32:29;95287.63;;;0.48;97.15
62103;BME280;48077;48.104;11.702;2023-02-22T07:34:52;95283.16;;;0.56;97.25
62103;BME280;48077;48.104;11.702;2023-02-22T07:37:15;95279.41;;;0.74;96.60
62103;BME280;48077;48.104;11.702;2023-02-22T07:39:39;95281.59;;;0.85;96.18
62103;BME280;48077;48.104;11.702;2023-02-22T07:42:05;95285.72;;;1.03;95.72
62103;BME280;48077;48.104;11.702;2023-02-22T07:44:29;95256.63;;;1.04;94.83
62103;BME280;48077;48.104;11.702;2023-02-22T07:46:52;95279.47;;;1.33;94.13
62103;BME280;48077;48.104;11.702;2023-02-22T07:49:16;95252.59;;;1.31;93.50
62103;BME280;48077;48.104;11.702;2023-02-22T07:51:41;95268.78;;;1.50;92.86
62103;BME280;48077;48.104;11.702;2023-02-22T07:54:05;95251.94;;;1.59;91.85
62103;BME280;48077;48.104;11.702;2023-02-22T07:56:28;95267.44;;;1.84;91.06
62103;BME280;48077;48.104;11.702;2023-02-22T07:58:51;95269.81;;;2.00;90.63
62103;BME280;48077;48.104;11.702;2023-02-22T08:01:15;95266.47;;;2.06;89.96
62103;BME280;48077;48.104;11.702;2023-02-22T08:03:38;95248.88;;;2.07;89.40
62103;BME280;48077;48.104;11.702;2023-02-22T08:06:03;95259.81;;;2.25;89.08
62103;BME280;48077;48.104;11.702;2023-02-22T08:08:27;95269.72;;;2.45;88.34
62103;BME280;48077;48.104;11.702;2023-02-22T08:10:51;95262.13;;;2.56;87.32
62103;BME280;48077;48.104;11.702;2023-02-22T08:13:15;95243.09;;;2.54;86.58
62103;BME280;48077;48.104;11.702;2023-02-22T08:15:40;95228.94;;;2.62;85.98
62103;BME280;48077;48.104;11.702;2023-02-22T08:18:08;95255.34;;;2.90;85.01
62103;BME280;48077;48.104;11.702;2023-02-22T08:20:32;95256.31;;;3.11;84.08
62103;BME280;48077;48.104;11.702;2023-02-22T08:22:56;95243.38;;;3.22;83.52
62103;BME280;48077;48.104;11.702;2023-02-22T08:25:22;95239.97;;;3.29;83.09
62103;BME280;48077;48.104;11.702;2023-02-22T08:27:49;95256.31;;;3.45;82.63
62103;BME280;48077;48.104;11.702;2023-02-22T08:30:18;95253.56;;;3.60;82.12
62103;BME280;48077;48.104;11.702;2023-02-22T08:32:44;95250.59;;;3.77;80.73
62103;BME280;48077;48.104;11.702;2023-02-22T08:35:08;95234.19;;;3.81;80.79
62103;BME280;48077;48.104;11.702;2023-02-22T08:37:31;95244.38;;;3.98;80.15
62103;BME280;48077;48.104;11.702;2023-02-22T08:40:00;95232.03;;;4.05;79.25
62103;BME280;48077;48.104;11.702;2023-02-22T08:42:24;95242.06;;;4.30;78.34
62103;BME280;48077;48.104;11.702;2023-02-22T08:44:47;95224.22;;;4.45;76.33
62103;BME280;48077;48.104;11.702;2023-02-22T08:47:10;95230.72;;;4.62;75.88
62103;BME280;48077;48.104;11.702;2023-02-22T08:49:34;95211.03;;;4.72;75.66
62103;BME280;48077;48.104;11.702;2023-02-22T08:51:57;95234.81;;;4.98;75.04
62103;BME280;48077;48.104;11.702;2023-02-22T08:54:21;95230.31;;;5.12;74.30
62103;BME280;48077;48.104;11.702;2023-02-22T08:56:44;95213.66;;;5.12;74.16
62103;BME280;48077;48.104;11.702;2023-02-22T08:59:10;95232.53;;;5.35;73.54
62103;BME280;48077;48.104;11.702;2023-02-22T09:01:34;95223.97;;;5.46;72.62
62103;BME280;48077;48.104;11.702;2023-02-22T09:03:57;95219.69;;;5.59;72.41
62103;BME280;48077;48.104;11.702;2023-02-22T09:06:21;95215.13;;;5.73;71.91
62103;BME280;48077;48.104;11.702;2023-02-22T09:08:45;95214.06;;;5.87;70.65
62103;BME280;48077;48.104;11.702;2023-02-22T09:11:08;95210.16;;;6.03;69.63
62103;BME280;48077;48.104;11.702;2023-02-22T09:13:31;95219.19;;;6.27;68.22
62103;BME280;48077;48.104;11.702;2023-02-22T09:15:57;95225.25;;;6.41;67.05
62103;BME280;48077;48.104;11.702;2023-02-22T09:18:21;95212.34;;;6.51;65.43
62103;BME280;48077;48.104;11.702;2023-02-22T09:20:44;95223.25;;;6.68;65.41
62103;BME280;48077;48.104;11.702;2023-02-22T09:23:08;95215.03;;;6.76;64.58
62103;BME280;48077;48.104;11.702;2023-02-22T09:25:31;95207.19;;;6.88;64.02
62103;BME280;48077;48.104;11.702;2023-02-22T09:27:56;95203.63;;;7.01;62.55
62103;BME280;48077;48.104;11.702;2023-02-22T09:30:30;95210.16;;;7.23;62.71
62103;BME280;48077;48.104;11.702;2023-02-22T09:32:57;95213.66;;;7.42;62.09
62103;BME280;48077;48.104;11.702;2023-02-22T09:35:21;95195.81;;;7.49;61.15
62103;BME280;48077;48.104;11.702;2023-02-22T09:37:49;95195.31;;;7.59;61.07
62103;BME280;48077;48.104;11.702;2023-02-22T09:40:16;95205.13;;;7.77;60.05
62103;BME280;48077;48.104;11.702;2023-02-22T09:42:57;95193.28;;;7.91;59.68
62103;BME280;48077;48.104;11.702;2023-02-22T09:48:15;95177.31;;;8.10;58.86
62103;BME280;48077;48.104;11.702;2023-02-22T09:50:42;95187.00;;;8.35;58.35
62103;BME280;48077;48.104;11.702;2023-02-22T09:53:33;95199.72;;;8.63;58.12
62103;BME280;48077;48.104;11.702;2023-02-22T09:56:03;95183.31;;;8.66;57.78
62103;BME280;48077;48.104;11.702;2023-02-22T09:58:37;95183.22;;;8.84;57.49
62103;BME280;48077;48.104;11.702;2023-02-22T10:06:43;95185.25;;;9.48;55.41
62103;BME280;48077;48.104;11.702;2023-02-22T10:09:10;95184.75;;;9.63;55.52
62103;BME280;48077;48.104;11.702;2023-02-22T10:11:48;95167.84;;;9.69;54.94
62103;BME280;48077;48.104;11.702;2023-02-22T10:14:27;95190.00;;;9.98;54.04
62103;BME280;48077;48.104;11.702;2023-02-22T10:17:01;95179.19;;;10.17;52.72
62103;BME280;48077;48.104;11.702;2023-02-22T10:19:59;95182.50;;;10.36;52.39
62103;BME280;48077;48.104;11.702;2023-02-22T10:25:26;95143.50;;;10.63;50.55
62103;BME280;48077;48.104;11.702;2023-02-22T10:28:00;95145.38;;;10.97;49.27
62103;BME280;48077;48.104;11.702;2023-02-22T10:30:34;95171.69;;;11.27;48.17
62103;BME280;48077;48.104;11.702;2023-02-22T10:33:09;95172.00;;;11.47;48.27
62103;BME280;48077;48.104;11.702;2023-02-22T10:35:39;95154.69;;;11.72;46.94
62103;BME280;48077;48.104;11.702;2023-02-22T10:38:24;95161.00;;;12.05;46.27
62103;BME280;48077;48.104;11.702;2023-02-22T10:43:32;95129.19;;;12.03;44.04
62103;BME280;48077;48.104;11.702;2023-02-22T10:45:59;95123.50;;;12.00;44.88
62103;BME280;48077;48.104;11.702;2023-02-22T10:48:24;95158.19;;;12.17;45.18
62103;BME280;48077;48.104;11.702;2023-02-22T10:50:48;95131.53;;;12.22;44.54
62103;BME280;48077;48.104;11.702;2023-02-22T10:53:15;95150.84;;;12.56;43.71
62103;BME280;48077;48.104;11.702;2023-02-22T11:03:42;95149.78;;;13.27;40.84
62103;BME280;48077;48.104;11.702;2023-02-22T11:06:18;95146.25;;;13.53;41.93
62103;BME280;48077;48.104;11.702;2023-02-22T11:08:42;95148.00;;;13.80;41.54
62103;BME280;48077;48.104;11.702;2023-02-22T11:11:23;95127.69;;;13.94;40.96
62103;BME280;48077;48.104;11.702;2023-02-22T11:13:52;95125.59;;;14.07;39.58
62103;BME280;48077;48.104;11.702;2023-02-22T11:16:35;95122.41;;;14.20;39.43
62103;BME280;48077;48.104;11.702;2023-02-22T11:19:18;95128.91;;;14.40;38.49
62103;BME280;48077;48.104;11.702;2023-02-22T11:21:55;95100.69;;;14.32;39.27
62103;BME280;48077;48.104;11.702;2023-02-22T11:24:21;95101.31;;;14.60;37.82
62103;BME280;48077;48.104;11.702;2023-02-22T11:26:52;95095.97;;;14.75;36.95
62103;BME280;48077;48.104;11.702;2023-02-22T11:29:27;95100.78;;;14.88;36.76
62103;BME280;48077;48.104;11.702;2023-02-22T11:31:54;95104.28;;;14.84;38.11
62103;BME280;48077;48.104;11.702;2023-02-22T11:34:38;95100.75;;;14.83;38.01
62103;BME280;48077;48.104;11.702;2023-02-22T11:40:03;95098.50;;;15.57;37.90
62103;BME280;48077;48.104;11.702;2023-02-22T11:42:27;95087.16;;;15.70;37.04
62103;BME280;48077;48.104;11.702;2023-02-22T11:45:12;95088.19;;;15.95;37.44
62103;BME280;48077;48.104;11.702;2023-02-22T11:47:49;95083.84;;;16.04;37.12
62103;BME280;48077;48.104;11.702;2023-02-22T11:50:30;95081.59;;;16.22;36.59
62103;BME280;48077;48.104;11.702;2023-02-22T11:53:11;95066.44;;;16.36;36.72
62103;BME280;48077;48.104;11.702;2023-02-22T11:55:48;95059.53;;;16.59;35.92
62103;BME280;48077;48.104;11.702;2023-02-22T11:58:32;95070.19;;;16.74;34.98
62103;BME280;48077;48.104;11.702;2023-02-22T12:06:47;95055.69;;;16.31;35.41
62103;BME280;48077;48.104;11.702;2023-02-22T12:17:30;95056.41;;;16.47;34.61
62103;BME280;48077;48.104;11.702;2023-02-22T12:20:03;95049.63;;;16.10;34.93
62103;BME280;48077;48.104;11.702;2023-02-22T12:22:35;95057.75;;;15.99;35.79
62103;BME280;48077;48.104;11.702;2023-02-22T12:25:16;95038.22;;;15.84;36.34
62103;BME280;48077;48.104;11.702;2023-02-22T12:27:45;95060.09;;;15.51;36.88
62103;BME280;48077;48.104;11.702;2023-02-22T12:30:19;95056.06;;;15.44;36.58
62103;BME280;48077;48.104;11.702;2023-02-22T12:32:50;95055.66;;;15.11;36.81
62103;BME280;48077;48.104;11.702;2023-02-22T12:35:20;95061.56;;;15.03;37.60
62103;BME280;48077;48.104;11.702;2023-02-22T12:38:03;95057.00;;;14.83;38.13
62103;BME280;48077;48.104;11.702;2023-02-22T12:40:38;95054.31;;;14.62;38.75
62103;BME280;48077;48.104;11.702;2023-02-22T12:43:14;95057.03;;;14.77;39.12
62103;BME280;48077;48.104;11.702;2023-02-22T12:45:45;95051.34;;;14.89;38.77
62103;BME280;48077;48.104;11.702;2023-02-22T12:51:01;95036.53;;;15.28;38.34
62103;BME280;48077;48.104;11.702;2023-02-22T12:53:30;95038.38;;;15.37;38.00
62103;BME280;48077;48.104;11.702;2023-02-22T12:56:14;95040.03;;;15.23;38.66
62103;BME280;48077;48.104;11.702;2023-02-22T13:01:19;95030.44;;;14.86;39.73
62103;BME280;48077;48.104;11.702;2023-02-22T13:03:43;95037.16;;;14.63;40.51
62103;BME280;48077;48.104;11.702;2023-02-22T13:06:25;95026.97;;;14.75;39.70
62103;BME280;48077;48.104;11.702;2023-02-22T13:11:27;95034.72;;;14.46;40.94
62103;BME280;48077;48.104;11.702;2023-02-22T13:16:52;95024.53;;;14.28;41.34
62103;BME280;48077;48.104;11.702;2023-02-22T13:22:04;95001.72;;;14.20;41.54
62103;BME280;48077;48.104;11.702;2023-02-22T13:24:47;95015.66;;;14.43;41.59
62103;BME280;48077;48.104;11.702;2023-02-22T13:27:31;94997.16;;;14.36;41.54
62103;BME280;48077;48.104;11.702;2023-02-22T13:29:57;94984.00;;;14.34;40.86
62103;BME280;48077;48.104;11.702;2023-02-22T13:32:47;95009.50;;;14.42;40.83
62103;BME280;48077;48.104;11.702;2023-02-22T13:35:44;95008.72;;;14.31;40.86
62103;BME280;48077;48.104;11.702;2023-02-22T13:52:13;94993.13;;;14.03;42.14
62103;BME280;48077;48.104;11.702;2023-02-22T13:57:03;94969.53;;;14.05;39.82
62103;BME280;48077;48.104;11.702;2023-02-22T13:59:30;94970.31;;;13.90;40.67
62103;BME280;48077;48.104;11.702;2023-02-22T14:01:55;94999.28;;;13.98;40.59
62103;BME280;48077;48.104;11.702;2023-02-22T14:09:47;94992.84;;;14.09;40.76
62103;BME280;48077;48.104;11.702;2023-02-22T14:17:32;94993.66;;;14.15;41.59
62103;BME280;48077;48.104;11.702;2023-02-22T14:20:19;94992.31;;;14.07;41.74
62103;BME280;48077;48.104;11.702;2023-02-22T14:22:43;94976.19;;;13.87;41.78
62103;BME280;48077;48.104;11.702;2023-02-22T14:25:35;94994.72;;;13.99;41.86
62103;BME280;48077;48.104;11.702;2023-02-22T14:28:01;94957.94;;;13.63;41.97
62103;BME280;48077;48.104;11.702;2023-02-22T14:30:30;94988.22;;;13.79;42.19
62103;BME280;48077;48.104;11.702;2023-02-22T14:32:55;94987.16;;;13.70;42.55
62103;BME280;48077;48.104;11.702;2023-02-22T14:35:28;94976.38;;;13.49;43.00
62103;BME280;48077;48.104;11.702;2023-02-22T14:38:02;94968.84;;;13.36;42.69
62103;BME280;48077;48.104;11.702;2023-02-22T14:40:32;94988.94;;;13.33;43.16
62103;BME280;48077;48.104;11.702;2023-02-22T14:43:02;94974.13;;;13.26;43.42
62103;BME280;48077;48.104;11.702;2023-02-22T14:45:28;94988.31;;;13.26;43.39
62103;BME280;48077;48.104;11.702;2023-02-22T14:48:01;94949.97;;;13.10;43.54
62103;BME280;48077;48.104;11.702;2023-02-22T14:50:58;94993.13;;;13.24;43.72
62103;BME280;48077;48.104;11.702;2023-02-22T14:53:29;94981.03;;;13.11;43.90